Time;durP1;ratioP1;P1;durP2;ratioP2;P2;SDS_P1;SDS_P2;PMS_P1;PMS_P2;Temp;Humidity;BMP_temperature;BMP_pressure;BME280_temperature;BME280_humidity;BME280_pressure;Samples;Min_cycle;Max_cycle;Signal;HPM_P1;HPM_P2
2022/11/05 00:16:45;;;;;;;8.32;7.68;;;7.10;99.90;;;;;;4223315;28;20047;-82
2022/11/05 00:19:08;;;;;;;8.73;7.97;;;7.20;99.90;;;;;;4227709;28;20058;-82
2022/11/05 00:26:44;;;;;;;5.60;4.75;;;7.10;99.90;;;;;;4231292;28;20061;-82
2022/11/05 00:29:04;;;;;;;6.03;5.53;;;7.20;99.90;;;;;;4229901;28;20055;-82
2022/11/05 00:31:24;;;;;;;6.20;5.60;;;7.10;99.90;;;;;;4230031;28;20043;-82
2022/11/05 00:33:44;;;;;;;12.27;5.07;;;7.00;99.90;;;;;;4228522;28;20043;-82
2022/11/05 00:36:05;;;;;;;9.18;4.95;;;7.00;99.90;;;;;;4227212;28;20366;-82
2022/11/05 00:38:25;;;;;;;9.02;5.40;;;7.00;99.90;;;;;;4216713;28;20533;-82
2022/11/05 00:40:45;;;;;;;6.90;4.80;;;7.10;99.90;;;;;;4225799;28;20054;-82
2022/11/05 00:45:43;;;;;;;6.90;5.78;;;7.10;99.90;;;;;;4230433;28;20050;-82
2022/11/05 00:50:41;;;;;;;9.57;8.10;;;6.80;99.90;;;;;;4228254;28;20290;-82
2022/11/05 00:53:02;;;;;;;9.77;8.98;;;6.70;99.90;;;;;;4226728;28;20043;-82
2022/11/05 00:55:27;;;;;;;10.63;9.85;;;6.50;99.90;;;;;;4224696;28;20083;-82
2022/11/05 00:57:47;;;;;;;11.85;10.80;;;6.40;99.90;;;;;;4227480;28;20077;-82
2022/11/05 01:00:07;;;;;;;12.30;11.48;;;6.30;99.90;;;;;;4229817;28;20047;-82
2022/11/05 01:02:27;;;;;;;11.90;10.88;;;6.30;99.90;;;;;;4232385;28;20236;-82
2022/11/05 01:04:47;;;;;;;13.00;10.40;;;6.30;99.90;;;;;;4233959;28;20082;-82
2022/11/05 01:07:07;;;;;;;9.88;9.13;;;6.30;99.90;;;;;;4222073;28;20043;-82
2022/11/05 01:09:27;;;;;;;12.00;9.25;;;6.30;99.90;;;;;;4228150;28;20457;-82
2022/11/05 01:11:47;;;;;;;10.02;9.07;;;6.50;99.90;;;;;;4223247;28;20043;-82
2022/11/05 01:14:09;;;;;;;9.40;7.68;;;6.50;99.90;;;;;;4229511;28;20365;-82
2022/11/05 01:16:30;;;;;;;7.27;6.73;;;6.40;99.90;;;;;;4230634;28;20368;-82
2022/11/05 01:18:50;;;;;;;6.75;5.95;;;6.50;99.90;;;;;;4232107;28;20066;-82
2022/11/05 01:21:14;;;;;;;8.90;8.05;;;6.60;99.90;;;;;;4235762;28;20065;-82
2022/11/05 01:23:34;;;;;;;5.70;5.20;;;6.60;99.90;;;;;;4226323;28;20040;-82
2022/11/05 01:25:57;;;;;;;7.60;6.80;;;6.70;99.90;;;;;;4227131;28;20073;-82
2022/11/05 01:28:17;;;;;;;6.82;6.28;;;6.60;99.90;;;;;;4228760;28;20366;-82
2022/11/05 01:30:37;;;;;;;5.25;5.05;;;6.60;99.90;;;;;;4229714;28;20362;-82
2022/11/05 01:32:57;;;;;;;9.18;5.10;;;6.60;99.90;;;;;;4217117;28;20039;-82
2022/11/05 01:35:17;;;;;;;12.25;5.10;;;6.70;99.90;;;;;;4230012;28;20051;-82
2022/11/05 01:37:38;;;;;;;6.75;6.30;;;6.70;99.90;;;;;;4224737;28;20077;-82
2022/11/05 01:39:58;;;;;;;5.72;4.32;;;6.80;99.90;;;;;;4225710;28;20054;-82
2022/11/05 01:42:21;;;;;;;6.38;4.57;;;6.80;99.90;;;;;;4226958;28;20034;-82
2022/11/05 01:44:52;;;;;;;4.15;3.53;;;6.80;99.90;;;;;;4229108;28;20078;-82
2022/11/05 01:47:46;;;;;;;7.10;4.35;;;6.90;99.90;;;;;;4231458;28;20098;-82
2022/11/05 01:50:32;;;;;;;10.85;4.88;;;6.80;99.90;;;;;;4234875;28;20074;-82
2022/11/05 01:52:57;;;;;;;5.25;4.88;;;6.70;99.90;;;;;;4236274;28;20084;-82
2022/11/05 01:55:22;;;;;;;6.18;4.90;;;6.70;99.90;;;;;;4213125;28;20231;-82
2022/11/05 01:57:42;;;;;;;5.65;4.68;;;6.70;99.90;;;;;;4228338;28;20077;-82
2022/11/05 02:00:03;;;;;;;6.32;5.03;;;6.80;99.90;;;;;;4230457;28;20067;-82
2022/11/05 02:02:24;;;;;;;4.97;4.57;;;6.60;99.90;;;;;;4219482;28;20047;-82
2022/11/05 02:04:56;;;;;;;3.83;3.50;;;6.50;99.90;;;;;;4232750;28;20085;-82
2022/11/05 02:07:16;;;;;;;7.75;5.00;;;6.60;99.90;;;;;;4232066;28;20239;-82
2022/11/05 02:09:50;;;;;;;9.30;4.20;;;6.60;99.90;;;;;;4230891;28;20108;-82
2022/11/05 02:12:11;;;;;;;5.88;4.82;;;6.60;99.90;;;;;;4224696;28;20116;-82
2022/11/05 02:14:31;;;;;;;7.40;5.03;;;6.50;99.90;;;;;;4231271;28;20074;-82
2022/11/05 02:17:13;;;;;;;6.05;5.57;;;6.50;99.90;;;;;;4233432;28;20408;-82
2022/11/05 02:19:52;;;;;;;7.63;6.85;;;6.30;99.90;;;;;;4220986;28;20047;-82
2022/11/05 02:22:33;;;;;;;8.32;7.90;;;6.20;99.90;;;;;;4232758;28;20129;-82
2022/11/05 02:25:08;;;;;;;7.40;7.20;;;6.20;99.90;;;;;;4231802;28;20042;-82
2022/11/05 02:28:16;;;;;;;8.27;7.85;;;6.20;99.90;;;;;;4224793;28;20039;-82
2022/11/05 02:30:48;;;;;;;5.35;5.15;;;6.10;99.90;;;;;;4195548;28;20111;-82
2022/11/05 02:33:42;;;;;;;7.15;5.47;;;6.20;99.90;;;;;;4230201;28;20051;-82
2022/11/05 02:36:19;;;;;;;5.07;4.88;;;6.10;99.90;;;;;;4225757;28;20047;-82
2022/11/05 02:38:58;;;;;;;6.53;5.65;;;6.00;99.90;;;;;;4232327;28;20038;-82
2022/11/05 02:41:37;;;;;;;9.27;4.97;;;6.00;99.90;;;;;;4231272;28;20092;-82
2022/11/05 02:44:10;;;;;;;8.88;5.10;;;5.90;99.90;;;;;;4230127;28;20049;-82
2022/11/05 02:46:54;;;;;;;9.65;5.60;;;5.90;99.90;;;;;;4231275;28;20039;-82
2022/11/05 02:49:21;;;;;;;6.60;5.40;;;6.00;99.90;;;;;;4232099;28;20039;-82
2022/11/05 02:52:00;;;;;;;6.18;5.63;;;6.00;99.90;;;;;;4231137;28;20038;-82
2022/11/05 02:54:43;;;;;;;7.32;4.78;;;6.20;99.90;;;;;;4232907;28;20062;-82
2022/11/05 02:57:04;;;;;;;6.72;6.18;;;6.30;99.90;;;;;;4230802;28;20040;-82
2022/11/05 02:59:24;;;;;;;6.35;6.05;;;6.20;99.90;;;;;;4230181;28;20055;-82
2022/11/05 03:01:45;;;;;;;8.13;7.05;;;6.10;99.90;;;;;;4229107;28;20078;-82
2022/11/05 03:04:09;;;;;;;6.97;6.40;;;6.10;99.90;;;;;;4231129;28;20081;-82
2022/11/05 03:06:32;;;;;;;7.35;6.88;;;6.10;99.90;;;;;;4234356;28;20280;-82
2022/11/05 03:09:23;;;;;;;7.05;6.32;;;5.90;99.90;;;;;;4234335;28;20043;-82
2022/11/05 03:12:04;;;;;;;6.80;6.20;;;5.90;99.90;;;;;;4232556;28;20046;-82
2022/11/05 03:14:29;;;;;;;10.07;7.75;;;5.90;99.90;;;;;;4228900;28;20081;-82
2022/11/05 03:17:22;;;;;;;8.00;7.40;;;5.90;99.90;;;;;;4228871;28;20038;-82
2022/11/05 03:19:52;;;;;;;7.22;6.82;;;6.00;99.90;;;;;;4228456;28;20042;-82
2022/11/05 03:22:22;;;;;;;8.10;7.03;;;6.00;99.90;;;;;;4235131;28;20116;-82
2022/11/05 03:24:48;;;;;;;7.55;7.00;;;5.90;99.90;;;;;;4237461;28;20073;-82
2022/11/05 03:27:22;;;;;;;7.68;6.95;;;5.90;99.90;;;;;;4235406;28;20107;-82
2022/11/05 03:29:46;;;;;;;6.55;5.97;;;5.90;99.90;;;;;;4228494;28;20234;-82
2022/11/05 03:32:06;;;;;;;6.60;6.10;;;6.00;99.90;;;;;;4229500;28;20059;-82
2022/11/05 03:34:41;;;;;;;7.53;6.97;;;5.90;99.90;;;;;;4233232;28;20046;-83
2022/11/05 03:37:02;;;;;;;7.30;6.50;;;6.10;99.90;;;;;;4233590;28;20039;-83
2022/11/05 03:39:29;;;;;;;5.63;5.47;;;6.20;99.90;;;;;;4233474;28;20054;-83
2022/11/05 03:41:52;;;;;;;7.70;6.95;;;6.20;99.90;;;;;;4232177;28;20078;-82
2022/11/05 03:44:12;;;;;;;;;;;6.20;99.90;;;;;;4232564;28;20086;-83
2022/11/05 03:46:41;;;;;;;7.80;7.10;;;6.10;99.90;;;;;;4229987;28;19922;-83
2022/11/05 03:49:05;;;;;;;6.78;6.20;;;6.10;99.90;;;;;;4231336;28;20043;-82
2022/11/05 03:51:48;;;;;;;7.60;7.10;;;6.10;99.90;;;;;;4233102;28;20035;-82
2022/11/05 03:54:09;;;;;;;6.20;5.50;;;5.90;99.90;;;;;;4235260;28;20046;-82
2022/11/05 03:56:38;;;;;;;7.50;6.95;;;5.90;99.90;;;;;;4217852;28;20090;-82
2022/11/05 03:59:00;;;;;;;6.97;6.43;;;5.90;99.90;;;;;;4232187;28;20096;-82
2022/11/05 04:01:20;;;;;;;6.67;6.27;;;6.00;99.90;;;;;;4217730;28;20086;-82
2022/11/05 04:03:40;;;;;;;7.32;6.88;;;5.90;99.90;;;;;;4229839;28;20065;-82
2022/11/05 04:13:55;;;;;;;4.65;4.40;;;5.70;99.90;;;;;;4231057;28;20265;-82
2022/11/05 04:18:52;;;;;;;7.95;7.50;;;5.90;99.90;;;;;;4230663;28;20440;-82
2022/11/05 04:24:09;;;;;;;9.45;8.43;;;5.90;99.90;;;;;;4229946;28;20040;-82
2022/11/05 04:26:29;;;;;;;6.85;6.10;;;5.90;99.90;;;;;;4228049;28;20391;-82
2022/11/05 04:31:27;;;;;;;5.32;4.82;;;5.90;99.90;;;;;;4230775;28;20054;-82
2022/11/05 04:33:47;;;;;;;4.22;4.00;;;6.10;99.90;;;;;;4230472;28;20099;-82
2022/11/05 04:36:07;;;;;;;3.80;3.47;;;6.20;99.90;;;;;;4215266;28;20117;-82
2022/11/05 04:38:26;;;;;;;6.05;4.25;;;6.30;99.90;;;;;;4216314;28;20243;-82
2022/11/05 04:40:47;;;;;;;7.93;4.80;;;6.30;99.90;;;;;;4226481;28;20051;-83
2022/11/05 04:43:07;;;;;;;3.35;3.15;;;6.40;99.90;;;;;;4228542;28;20062;-83
2022/11/05 04:45:35;;;;;;;5.53;3.90;;;6.40;99.90;;;;;;4222012;28;20049;-83
2022/11/05 04:47:55;;;;;;;5.05;4.80;;;6.50;99.90;;;;;;4230887;28;20076;-83
2022/11/05 04:50:15;;;;;;;5.70;4.57;;;6.50;99.90;;;;;;4230248;28;20055;-83
2022/11/05 04:52:35;;;;;;;4.65;4.45;;;6.40;99.90;;;;;;4230835;28;20105;-83
2022/11/05 04:54:55;;;;;;;5.13;4.78;;;6.40;99.90;;;;;;4217985;28;20247;-83
2022/11/05 04:57:14;;;;;;;4.70;4.18;;;6.40;99.90;;;;;;4233456;28;20034;-82
2022/11/05 04:59:34;;;;;;;6.13;5.72;;;6.40;99.90;;;;;;4216690;28;20176;-82
2022/11/05 05:01:54;;;;;;;12.10;4.03;;;6.30;99.90;;;;;;4230420;28;20369;-82
2022/11/05 05:04:14;;;;;;;3.95;3.70;;;6.40;99.90;;;;;;4230499;28;20046;-82
2022/11/05 05:06:35;;;;;;;7.53;5.18;;;6.40;99.90;;;;;;4222461;28;20081;-82
2022/11/05 05:08:55;;;;;;;3.80;3.60;;;6.50;99.90;;;;;;4222336;28;20101;-82
2022/11/05 05:11:17;;;;;;;5.93;5.63;;;6.50;99.90;;;;;;4230586;28;20043;-82
2022/11/05 05:13:37;;;;;;;5.90;5.28;;;6.50;99.90;;;;;;4226877;28;20050;-82
2022/11/05 05:15:57;;;;;;;4.78;4.47;;;6.50;99.90;;;;;;4225510;28;20082;-82
2022/11/05 05:18:17;;;;;;;3.92;3.60;;;6.60;99.90;;;;;;4224881;28;20066;-82
2022/11/05 05:23:15;;;;;;;4.97;4.47;;;6.80;99.90;;;;;;4232881;28;20226;-82
2022/11/05 05:25:35;;;;;;;5.07;4.65;;;7.00;99.90;;;;;;4232006;28;20269;-82
2022/11/05 05:27:57;;;;;;;6.13;5.50;;;7.30;99.90;;;;;;4222096;28;20082;-82
2022/11/05 05:30:17;;;;;;;4.55;4.25;;;7.30;99.90;;;;;;4231006;28;20043;-82
2022/11/05 05:32:37;;;;;;;6.93;6.57;;;7.40;99.90;;;;;;4230125;28;20298;-82
2022/11/05 05:34:57;;;;;;;4.18;3.75;;;7.60;99.90;;;;;;4231208;28;20070;-82
2022/11/05 05:37:17;;;;;;;4.50;4.20;;;7.60;99.90;;;;;;4233679;28;20108;-82
2022/11/05 05:39:37;;;;;;;4.65;4.30;;;7.40;99.90;;;;;;4223499;28;20262;-82
2022/11/05 05:41:57;;;;;;;5.65;5.15;;;7.00;99.90;;;;;;4232405;28;20267;-82
2022/11/05 05:44:17;;;;;;;5.22;4.68;;;6.90;99.90;;;;;;4230440;28;20090;-83
2022/11/05 05:46:36;;;;;;;5.15;5.00;;;6.80;99.90;;;;;;4229334;28;20078;-83
2022/11/05 05:48:56;;;;;;;3.95;3.88;;;6.90;99.90;;;;;;4227147;28;20047;-82
2022/11/05 05:51:16;;;;;;;4.50;4.30;;;6.90;99.90;;;;;;4229599;28;20088;-82
2022/11/05 05:53:37;;;;;;;4.57;4.25;;;7.00;99.90;;;;;;4217024;28;20051;-82
2022/11/05 05:55:57;;;;;;;5.00;4.07;;;7.10;99.90;;;;;;4232260;28;20075;-82
2022/11/05 05:58:17;;;;;;;5.30;4.55;;;7.10;99.90;;;;;;4224648;28;20113;-82
2022/11/05 06:00:37;;;;;;;5.22;4.80;;;7.10;99.90;;;;;;4223369;28;20055;-82
2022/11/05 06:02:57;;;;;;;4.72;4.38;;;7.10;99.90;;;;;;4229286;28;20081;-82
2022/11/05 06:05:17;;;;;;;4.88;4.45;;;7.20;99.90;;;;;;4231506;28;20050;-82
2022/11/05 06:07:36;;;;;;;5.43;5.15;;;7.20;99.90;;;;;;4217689;28;20240;-82
2022/11/05 06:09:57;;;;;;;6.05;5.57;;;7.50;99.90;;;;;;4218344;28;20048;-82
2022/11/05 06:12:16;;;;;;;6.15;5.85;;;7.60;99.90;;;;;;4221400;28;20440;-82
2022/11/05 06:14:36;;;;;;;5.10;5.00;;;7.70;99.90;;;;;;4235483;28;20055;-82
2022/11/05 06:16:56;;;;;;;6.07;5.78;;;7.90;99.90;;;;;;4220509;28;20043;-82
2022/11/05 06:19:15;;;;;;;5.82;5.72;;;8.30;99.90;;;;;;4229387;28;20115;-82
2022/11/05 06:21:35;;;;;;;5.00;4.68;;;8.60;99.90;;;;;;4232094;28;20047;-82
2022/11/05 06:23:55;;;;;;;4.90;4.80;;;8.80;99.90;;;;;;4232082;28;20046;-82
2022/11/05 06:26:17;;;;;;;4.43;4.20;;;9.30;99.90;;;;;;4231752;28;20051;-82
2022/11/05 06:28:37;;;;;;;4.78;4.68;;;9.40;99.90;;;;;;4230862;28;20078;-82
2022/11/05 06:30:57;;;;;;;4.75;4.55;;;9.50;99.90;;;;;;4226843;28;20082;-83
2022/11/05 06:33:16;;;;;;;3.67;3.58;;;9.60;99.90;;;;;;4215248;28;20047;-83
2022/11/05 06:35:36;;;;;;;3.45;3.28;;;9.60;99.90;;;;;;4230841;28;20074;-83
2022/11/05 06:38:02;;;;;;;2.65;2.63;;;9.60;99.90;;;;;;4230415;28;20115;-83
2022/11/05 06:40:22;;;;;;;4.57;4.38;;;9.70;99.90;;;;;;4231454;28;20090;-83
2022/11/05 06:42:41;;;;;;;4.10;3.83;;;9.80;99.90;;;;;;4231130;28;20063;-83
2022/11/05 06:45:02;;;;;;;4.43;4.32;;;9.80;99.90;;;;;;4234856;28;20108;-83
2022/11/05 06:47:22;;;;;;;12.85;5.53;;;9.80;99.90;;;;;;4239665;28;20226;-83
2022/11/05 06:49:41;;;;;;;3.58;3.38;;;9.80;99.90;;;;;;4224647;28;20111;-82
2022/11/05 06:52:01;;;;;;;3.85;3.75;;;9.80;99.90;;;;;;4227765;28;20051;-82
2022/11/05 06:54:21;;;;;;;4.13;3.88;;;9.80;99.90;;;;;;4230252;28;20045;-82
2022/11/05 06:56:41;;;;;;;4.70;4.45;;;9.80;99.90;;;;;;4232836;28;20058;-83
2022/11/05 06:59:00;;;;;;;2.88;2.83;;;9.90;99.90;;;;;;4232553;28;20426;-86
2022/11/05 07:01:20;;;;;;;3.97;3.88;;;9.90;99.90;;;;;;4231591;28;20081;-86
2022/11/05 07:03:40;;;;;;;3.55;3.47;;;10.10;99.90;;;;;;4230233;28;20043;-86
2022/11/05 07:06:02;;;;;;;4.13;3.90;;;10.20;99.90;;;;;;4217360;28;20095;-86
2022/11/05 07:08:22;;;;;;;3.95;3.75;;;10.20;99.90;;;;;;4229068;28;20055;-87
2022/11/05 07:10:42;;;;;;;3.00;2.90;;;10.20;99.90;;;;;;4232737;28;20288;-87
2022/11/05 07:13:03;;;;;;;3.88;3.00;;;10.30;99.90;;;;;;4231400;28;20362;-87
2022/11/05 07:15:28;;;;;;;3.15;2.95;;;10.20;99.90;;;;;;4220382;28;20269;-87
2022/11/05 07:17:47;;;;;;;4.05;3.85;;;10.10;99.90;;;;;;4224444;28;20235;-87
2022/11/05 07:20:08;;;;;;;3.67;3.47;;;10.10;99.90;;;;;;4230344;28;20235;-87
2022/11/05 07:22:28;;;;;;;3.25;3.17;;;10.00;99.90;;;;;;4217590;28;20086;-87
2022/11/05 07:24:48;;;;;;;3.80;3.50;;;10.00;99.90;;;;;;4229131;28;20043;-87
2022/11/05 07:27:08;;;;;;;3.20;3.20;;;10.10;99.90;;;;;;4230764;28;20243;-87
2022/11/05 07:29:28;;;;;;;3.05;3.05;;;10.00;99.90;;;;;;4230834;28;20065;-87
2022/11/05 07:31:48;;;;;;;3.72;2.75;;;10.10;99.90;;;;;;4231878;28;20226;-87
2022/11/05 07:34:07;;;;;;;3.83;3.58;;;10.10;99.90;;;;;;4230809;28;20223;-86
2022/11/05 07:36:27;;;;;;;7.55;6.90;;;10.10;99.90;;;;;;4217515;28;20047;-87
2022/11/05 07:38:47;;;;;;;5.65;5.25;;;10.00;99.90;;;;;;4228791;28;20046;-87
2022/11/05 07:41:06;;;;;;;2.97;2.88;;;10.00;99.90;;;;;;4229846;28;20051;-87
2022/11/05 07:43:26;;;;;;;3.15;2.92;;;10.00;99.90;;;;;;4228083;28;20370;-87
2022/11/05 07:45:46;;;;;;;2.90;2.80;;;10.00;99.90;;;;;;4231308;28;20389;-87
2022/11/05 07:48:06;;;;;;;10.73;10.30;;;10.10;99.90;;;;;;4223549;28;20077;-87
2022/11/05 07:50:29;;;;;;;5.38;5.28;;;10.10;99.90;;;;;;4230741;28;20071;-87
2022/11/05 07:52:49;;;;;;;3.17;3.15;;;10.20;99.90;;;;;;4230149;28;20043;-87
2022/11/05 07:55:10;;;;;;;2.65;2.65;;;10.30;99.90;;;;;;4229388;28;20050;-87
2022/11/05 07:57:30;;;;;;;5.43;5.30;;;10.30;99.90;;;;;;4232284;28;20130;-87
2022/11/05 07:59:49;;;;;;;3.92;3.75;;;10.40;99.90;;;;;;4232012;28;20119;-86
2022/11/05 08:02:10;;;;;;;2.60;2.47;;;10.50;99.90;;;;;;4232191;28;20042;-86
2022/11/05 08:04:30;;;;;;;2.28;2.00;;;10.50;99.90;;;;;;4217741;28;20108;-87
2022/11/05 08:06:50;;;;;;;2.25;2.25;;;10.60;99.90;;;;;;4231384;28;20039;-86
2022/11/05 08:09:10;;;;;;;1.90;1.90;;;10.70;99.90;;;;;;4226643;28;20100;-87
2022/11/05 08:11:30;;;;;;;2.00;2.00;;;10.70;99.90;;;;;;4230213;28;20169;-87
2022/11/05 08:13:50;;;;;;;2.70;2.47;;;10.80;99.90;;;;;;4217885;28;20055;-87
2022/11/05 08:16:10;;;;;;;2.13;2.13;;;10.80;99.90;;;;;;4234239;28;20058;-87
2022/11/05 08:18:31;;;;;;;2.30;2.20;;;10.90;99.90;;;;;;4237042;28;20050;-87
2022/11/05 08:20:50;;;;;;;1.98;1.98;;;11.00;99.90;;;;;;4233415;28;20084;-87
2022/11/05 08:23:10;;;;;;;2.40;2.30;;;11.00;99.90;;;;;;4225095;28;20047;-87
2022/11/05 08:25:31;;;;;;;1.98;1.92;;;11.10;99.90;;;;;;4230430;28;20092;-87
2022/11/05 08:28:06;;;;;;;1.88;1.80;;;11.10;99.90;;;;;;4229193;28;20224;-87
2022/11/05 08:30:27;;;;;;;1.42;1.42;;;11.20;99.90;;;;;;4232476;28;20038;-87
2022/11/05 08:32:46;;;;;;;2.13;2.03;;;11.20;99.90;;;;;;4220888;28;20047;-86
2022/11/05 08:35:06;;;;;;;1.80;1.70;;;11.20;99.90;;;;;;4237230;28;20051;-87
2022/11/05 08:37:26;;;;;;;1.30;1.30;;;11.30;99.90;;;;;;4231975;28;20430;-87
2022/11/05 08:39:46;;;;;;;2.15;2.05;;;11.30;99.90;;;;;;4225783;28;20243;-87
2022/11/05 08:42:06;;;;;;;1.70;1.60;;;11.40;99.90;;;;;;4229528;28;20058;-87
2022/11/05 08:44:26;;;;;;;1.55;1.55;;;11.30;99.90;;;;;;4232190;28;20055;-87
2022/11/05 08:46:45;;;;;;;2.05;2.05;;;11.40;99.90;;;;;;4233196;28;20047;-87
2022/11/05 08:49:05;;;;;;;1.65;1.60;;;11.40;99.90;;;;;;4236370;28;20121;-87
2022/11/05 08:51:25;;;;;;;2.17;2.08;;;11.40;99.90;;;;;;4232633;28;20080;-87
2022/11/05 08:53:44;;;;;;;1.75;1.75;;;11.40;99.90;;;;;;4231310;28;20051;-87
2022/11/05 08:56:05;;;;;;;1.70;1.70;;;11.40;99.90;;;;;;4229580;28;20039;-86
2022/11/05 08:58:25;;;;;;;6.22;1.90;;;11.40;99.90;;;;;;4230197;28;20178;-87
2022/11/05 09:00:47;;;;;;;1.65;1.65;;;11.40;99.90;;;;;;4231397;28;20055;-87
2022/11/05 09:03:08;;;;;;;2.33;2.13;;;11.30;99.90;;;;;;4232675;28;20066;-87
2022/11/05 09:05:30;;;;;;;1.63;1.63;;;11.40;99.90;;;;;;4228925;28;20089;-87
2022/11/05 09:07:49;;;;;;;4.57;4.38;;;11.40;99.90;;;;;;4230080;28;20153;-87
2022/11/05 09:10:12;;;;;;;7.75;7.55;;;11.30;99.90;;;;;;4230587;28;20079;-87
2022/11/05 09:12:32;;;;;;;7.40;7.20;;;11.30;99.90;;;;;;4229809;28;20043;-86
2022/11/05 09:14:52;;;;;;;4.22;4.03;;;11.30;99.90;;;;;;4229344;28;20055;-86
2022/11/05 09:17:16;;;;;;;5.95;5.85;;;11.30;99.90;;;;;;4229879;28;20040;-87
2022/11/05 09:19:37;;;;;;;2.70;2.60;;;11.40;99.90;;;;;;4227577;28;20046;-87
2022/11/05 09:21:59;;;;;;;1.42;1.40;;;11.40;99.90;;;;;;4228958;28;20046;-87
2022/11/05 09:24:19;;;;;;;2.10;1.90;;;11.40;99.90;;;;;;4228555;28;20050;-87
2022/11/05 09:26:39;;;;;;;3.83;3.63;;;11.40;99.90;;;;;;4230919;28;20081;-87
2022/11/05 09:28:58;;;;;;;2.15;2.15;;;11.50;99.90;;;;;;4229347;28;20051;-88
2022/11/05 09:31:18;;;;;;;1.35;1.35;;;11.50;99.90;;;;;;4220957;28;20400;-88
2022/11/05 09:33:40;;;;;;;1.40;1.40;;;11.50;99.90;;;;;;4227318;28;20051;-88
2022/11/05 09:36:00;;;;;;;1.73;1.73;;;11.60;99.90;;;;;;4227273;28;20073;-88
2022/11/05 09:38:20;;;;;;;1.55;1.45;;;11.70;99.90;;;;;;4229761;28;20387;-88
2022/11/05 09:41:01;;;;;;;1.40;1.40;;;11.80;99.90;;;;;;4213448;28;20086;-89
2022/11/05 09:43:43;;;;;;;1.30;1.30;;;11.70;99.90;;;;;;4230575;28;20108;-88
2022/11/05 09:46:25;;;;;;;1.70;1.70;;;11.60;99.90;;;;;;4230043;28;20039;-87
2022/11/05 09:48:54;;;;;;;1.63;1.63;;;11.50;99.90;;;;;;4231349;28;20047;-87
2022/11/05 09:51:15;;;;;;;2.35;2.35;;;11.50;99.90;;;;;;4233309;28;20116;-88
2022/11/05 09:53:44;;;;;;;1.50;1.50;;;11.40;99.90;;;;;;4228660;28;20069;-87
2022/11/05 09:56:09;;;;;;;1.80;1.70;;;11.40;99.90;;;;;;4229867;28;20097;-87
2022/11/05 09:58:47;;;;;;;1.15;1.15;;;11.40;99.90;;;;;;4229930;28;20035;-88
2022/11/05 10:01:13;;;;;;;12.57;11.77;;;11.50;99.90;;;;;;4229830;28;20071;-86
2022/11/05 10:03:38;;;;;;;2.47;2.47;;;11.50;99.90;;;;;;4230926;28;20389;-87
2022/11/05 10:06:06;;;;;;;1.60;1.40;;;11.50;99.90;;;;;;4233647;28;20081;-87
2022/11/05 10:08:31;;;;;;;1.60;1.60;;;11.50;99.90;;;;;;4230479;28;20073;-87
2022/11/05 10:11:01;;;;;;;1.23;1.23;;;11.50;99.90;;;;;;4226040;28;20085;-86
2022/11/05 10:13:32;;;;;;;1.70;1.70;;;11.50;99.90;;;;;;4229134;28;20077;-87
2022/11/05 10:16:00;;;;;;;2.05;2.05;;;11.60;99.90;;;;;;4233211;28;20047;-87
2022/11/05 10:18:33;;;;;;;1.52;1.52;;;11.60;99.90;;;;;;4232004;28;20038;-87
2022/11/05 10:20:54;;;;;;;1.30;1.30;;;11.60;99.90;;;;;;4230334;28;20243;-87
2022/11/05 10:23:17;;;;;;;3.25;3.10;;;11.60;99.90;;;;;;4229147;28;20047;-85
2022/11/05 10:25:43;;;;;;;2.75;2.75;;;11.50;99.90;;;;;;4228074;28;20127;-85
2022/11/05 10:28:04;;;;;;;2.72;2.72;;;11.50;99.90;;;;;;4226608;28;20050;-85
2022/11/05 10:30:24;;;;;;;3.88;3.78;;;11.50;99.90;;;;;;4232721;28;20050;-86
2022/11/05 10:32:46;;;;;;;1.52;1.48;;;11.50;99.90;;;;;;4232002;28;20038;-85
2022/11/05 10:35:11;;;;;;;3.35;3.25;;;11.50;99.90;;;;;;4230227;28;20231;-85
2022/11/05 10:37:32;;;;;;;2.35;2.35;;;11.60;99.90;;;;;;4229689;28;20039;-85
2022/11/05 10:39:59;;;;;;;1.83;1.67;;;11.60;99.90;;;;;;4229041;28;20035;-85
2022/11/05 10:42:43;;;;;;;1.52;1.52;;;11.60;99.90;;;;;;4227077;28;20245;-85
2022/11/05 10:45:06;;;;;;;2.38;2.28;;;11.50;99.90;;;;;;4231215;28;20081;-85
2022/11/05 10:48:12;;;;;;;3.17;3.08;;;11.50;99.90;;;;;;4232340;28;20038;-86
2022/11/05 10:50:33;;;;;;;1.70;1.67;;;11.60;99.90;;;;;;4232064;28;20085;-85
2022/11/05 10:53:22;;;;;;;1.65;1.55;;;11.50;99.90;;;;;;4230858;28;20104;-86
2022/11/05 10:55:46;;;;;;;1.70;1.70;;;11.50;99.90;;;;;;4230114;28;20039;-85
2022/11/05 10:58:28;;;;;;;1.95;1.92;;;11.70;99.90;;;;;;4229391;28;20057;-85
2022/11/05 11:00:48;;;;;;;3.03;2.92;;;11.70;99.90;;;;;;4233404;28;20055;-86
2022/11/05 11:03:44;;;;;;;1.70;1.60;;;11.80;99.90;;;;;;4232027;28;20050;-85
2022/11/05 11:06:13;;;;;;;1.58;1.58;;;11.80;99.90;;;;;;4232703;28;20047;-85
2022/11/05 11:08:35;;;;;;;1.73;1.73;;;11.90;99.90;;;;;;4221004;28;20078;-85
2022/11/05 11:11:03;;;;;;;1.40;1.40;;;12.00;99.90;;;;;;4227688;28;20089;-84
2022/11/05 11:13:50;;;;;;;1.20;1.20;;;12.00;99.90;;;;;;4216425;28;20039;-85
2022/11/05 11:16:26;;;;;;;1.88;1.77;;;12.10;99.90;;;;;;4230403;28;20366;-85
2022/11/05 11:18:51;;;;;;;1.60;1.50;;;12.20;99.90;;;;;;4223250;28;20105;-85
2022/11/05 11:21:22;;;;;;;1.48;1.48;;;12.30;99.90;;;;;;4230684;28;20391;-85
2022/11/05 11:23:51;;;;;;;1.50;1.40;;;12.40;99.90;;;;;;4231591;28;20107;-85
2022/11/05 11:26:12;;;;;;;1.52;1.30;;;12.50;99.90;;;;;;4226913;28;20234;-86
2022/11/05 11:28:42;;;;;;;1.80;1.70;;;12.50;99.90;;;;;;4228140;28;20047;-86
2022/11/05 11:31:12;;;;;;;1.42;1.40;;;12.60;99.90;;;;;;4215777;28;20043;-85
2022/11/05 11:33:33;;;;;;;1.15;1.15;;;12.60;99.90;;;;;;4233928;28;20069;-86
2022/11/05 11:35:54;;;;;;;1.67;1.60;;;12.70;99.90;;;;;;4227010;28;20047;-85
2022/11/05 11:38:16;;;;;;;1.45;1.40;;;12.80;99.90;;;;;;4216846;28;20082;-85
2022/11/05 11:40:37;;;;;;;1.10;1.10;;;12.80;99.90;;;;;;4230370;28;20258;-85
2022/11/05 11:43:02;;;;;;;1.10;1.10;;;12.80;99.90;;;;;;4232939;28;20062;-86
2022/11/05 11:45:27;;;;;;;1.20;1.20;;;12.90;99.90;;;;;;4225521;28;20101;-85
2022/11/05 11:47:49;;;;;;;1.20;1.20;;;12.90;99.90;;;;;;4217977;28;20289;-86
2022/11/05 11:50:40;;;;;;;1.20;1.20;;;12.90;99.90;;;;;;4231503;28;20051;-86
2022/11/05 11:53:18;;;;;;;1.20;1.20;;;12.80;99.90;;;;;;4231601;28;20050;-86
2022/11/05 11:55:38;;;;;;;1.20;1.20;;;12.80;99.90;;;;;;4214909;28;20092;-83
2022/11/05 11:58:07;;;;;;;1.88;1.30;;;12.80;99.90;;;;;;4228420;28;20251;-82
2022/11/05 12:00:28;;;;;;;1.30;1.20;;;12.90;99.90;;;;;;4212563;28;20051;-83
2022/11/05 12:03:06;;;;;;;1.50;1.48;;;13.40;99.90;;;;;;4229035;28;20085;-83
2022/11/05 12:05:36;;;;;;;3.13;3.03;;;13.80;99.90;;;;;;4216128;28;20136;-83
2022/11/05 12:08:15;;;;;;;1.13;1.10;;;14.20;99.90;;;;;;4214616;28;20051;-83
2022/11/05 12:11:01;;;;;;;2.25;1.13;;;14.30;99.90;;;;;;4216217;28;20222;-83
2022/11/05 12:13:21;;;;;;;1.10;1.10;;;13.90;99.90;;;;;;4228830;28;20108;-83
2022/11/05 12:15:59;;;;;;;1.10;1.10;;;14.20;99.90;;;;;;4228372;28;20042;-83
2022/11/05 12:18:50;;;;;;;1.00;1.00;;;14.10;99.90;;;;;;4228658;28;20412;-83
2022/11/05 12:21:48;;;;;;;1.10;1.10;;;14.10;99.90;;;;;;4219312;28;20127;-83
2022/11/05 12:24:38;;;;;;;2.67;1.17;;;14.30;99.90;;;;;;4228670;28;20051;-83
2022/11/05 12:27:30;;;;;;;1.48;1.20;;;14.40;99.90;;;;;;4215022;28;20074;-83
2022/11/05 12:30:06;;;;;;;1.10;1.10;;;14.50;99.90;;;;;;4228295;28;20081;-83
2022/11/05 12:32:44;;;;;;;1.45;1.45;;;14.70;99.90;;;;;;4223905;28;20065;-83
2022/11/05 12:35:15;;;;;;;1.10;1.10;;;15.00;99.90;;;;;;4229470;28;20374;-83
2022/11/05 12:38:06;;;;;;;1.00;1.00;;;14.80;99.90;;;;;;4231129;28;20380;-83
2022/11/05 12:40:53;;;;;;;1.60;1.20;;;14.80;99.90;;;;;;4219177;28;20047;-84
2022/11/05 12:43:55;;;;;;;1.17;1.17;;;14.80;99.90;;;;;;4218054;28;20039;-83
2022/11/05 12:46:37;;;;;;;1.10;1.10;;;14.80;99.90;;;;;;4229664;28;20073;-84
2022/11/05 12:49:09;;;;;;;1.65;1.10;;;14.40;99.90;;;;;;4227926;28;20039;-83
2022/11/05 12:51:40;;;;;;;1.15;1.10;;;14.30;99.90;;;;;;4230975;28;20081;-83
2022/11/05 12:54:13;;;;;;;1.10;1.10;;;14.20;99.90;;;;;;4233559;28;20046;-83
2022/11/05 12:56:38;;;;;;;1.40;1.40;;;14.00;99.90;;;;;;4230170;28;20138;-83
2022/11/05 12:59:27;;;;;;;1.40;1.40;;;13.70;99.90;;;;;;4230957;28;20091;-83
2022/11/05 13:02:01;;;;;;;2.13;2.03;;;13.70;99.90;;;;;;4199084;28;20071;-83
2022/11/05 13:04:42;;;;;;;2.25;2.17;;;13.80;99.90;;;;;;4228041;28;20042;-83
2022/11/05 13:07:08;;;;;;;1.10;1.10;;;13.80;99.90;;;;;;4230825;28;20042;-83
2022/11/05 13:09:37;;;;;;;1.40;1.40;;;13.80;99.90;;;;;;4218413;28;20077;-83
2022/11/05 13:12:12;;;;;;;3.33;3.17;;;13.80;99.90;;;;;;4236331;28;20119;-83
2022/11/05 13:14:53;;;;;;;8.05;7.25;;;13.50;99.90;;;;;;4230524;28;20047;-83
2022/11/05 13:17:54;;;;;;;12.52;7.75;;;13.30;99.90;;;;;;4224723;28;20280;-83
2022/11/05 13:20:37;;;;;;;2.60;2.40;;;13.40;99.90;;;;;;4206805;28;20107;-83
2022/11/05 13:22:57;;;;;;;9.38;5.30;;;13.50;99.90;;;;;;4230704;28;20081;-83
2022/11/05 13:25:30;;;;;;;3.97;3.72;;;13.30;99.90;;;;;;4218124;28;20239;-83
2022/11/05 13:28:08;;;;;;;;;;;13.50;99.90;;;;;;4236704;28;20043;-83
2022/11/05 13:30:37;;;;;;;2.15;1.23;;;13.50;99.90;;;;;;4235069;28;20122;-83